sensor_id;sensor_type;location;lat;lon;timestamp;P1;durP1;ratioP1;P2;durP2;ratioP2
60086;SDS011;45960;53.630;55.972;2023-08-21T00:00:46;28.52;;;11.85;;
60086;SDS011;45960;53.630;55.972;2023-08-21T00:01:47;26.60;;;11.45;;
60086;SDS011;45960;53.630;55.972;2023-08-21T00:02:48;23.15;;;11.73;;
60086;SDS011;45960;53.630;55.972;2023-08-21T00:03:49;19.45;;;10.60;;
60086;SDS011;45960;53.630;55.972;2023-08-21T00:04:50;23.60;;;11.77;;
60086;SDS011;45960;53.630;55.972;2023-08-21T00:05:51;23.77;;;10.77;;
60086;SDS011;45960;53.630;55.972;2023-08-21T00:06:52;24.35;;;11.95;;
60086;SDS011;45960;53.630;55.972;2023-08-21T00:07:53;23.88;;;13.15;;
60086;SDS011;45960;53.630;55.972;2023-08-21T00:08:54;32.92;;;12.32;;
60086;SDS011;45960;53.630;55.972;2023-08-21T00:09:55;26.77;;;13.02;;
60086;SDS011;45960;53.630;55.972;2023-08-21T00:10:56;25.10;;;11.85;;
60086;SDS011;45960;53.630;55.972;2023-08-21T00:11:57;21.90;;;11.98;;
60086;SDS011;45960;53.630;55.972;2023-08-21T00:12:58;21.55;;;10.65;;
60086;SDS011;45960;53.630;55.972;2023-08-21T00:13:59;28.92;;;10.45;;
60086;SDS011;45960;53.630;55.972;2023-08-21T00:15:00;23.05;;;9.70;;
60086;SDS011;45960;53.630;55.972;2023-08-21T00:16:01;21.80;;;10.20;;
60086;SDS011;45960;53.630;55.972;2023-08-21T00:17:02;20.65;;;9.18;;
60086;SDS011;45960;53.630;55.972;2023-08-21T00:18:04;17.85;;;9.32;;
60086;SDS011;45960;53.630;55.972;2023-08-21T00:19:06;15.20;;;8.68;;
60086;SDS011;45960;53.630;55.972;2023-08-21T00:20:07;14.85;;;7.72;;
60086;SDS011;45960;53.630;55.972;2023-08-21T00:21:09;12.57;;;6.60;;
60086;SDS011;45960;53.630;55.972;2023-08-21T00:22:10;15.07;;;7.53;;
60086;SDS011;45960;53.630;55.972;2023-08-21T00:23:11;14.93;;;8.57;;
60086;SDS011;45960;53.630;55.972;2023-08-21T00:24:12;22.15;;;10.30;;
60086;SDS011;45960;53.630;55.972;2023-08-21T00:25:13;19.13;;;10.45;;
60086;SDS011;45960;53.630;55.972;2023-08-21T00:26:15;17.52;;;9.40;;
60086;SDS011;45960;53.630;55.972;2023-08-21T00:27:16;23.30;;;10.85;;
60086;SDS011;45960;53.630;55.972;2023-08-21T00:28:17;23.58;;;11.52;;
60086;SDS011;45960;53.630;55.972;2023-08-21T00:29:18;24.65;;;10.95;;
60086;SDS011;45960;53.630;55.972;2023-08-21T00:30:18;23.80;;;10.57;;
60086;SDS011;45960;53.630;55.972;2023-08-21T00:31:20;18.60;;;9.82;;
60086;SDS011;45960;53.630;55.972;2023-08-21T00:32:21;23.50;;;11.57;;
60086;SDS011;45960;53.630;55.972;2023-08-21T00:33:22;22.90;;;10.65;;
60086;SDS011;45960;53.630;55.972;2023-08-21T00:34:23;23.83;;;11.50;;
60086;SDS011;45960;53.630;55.972;2023-08-21T00:35:24;25.67;;;12.20;;
60086;SDS011;45960;53.630;55.972;2023-08-21T00:36:25;23.80;;;12.85;;
60086;SDS011;45960;53.630;55.972;2023-08-21T00:37:26;31.05;;;13.43;;
60086;SDS011;45960;53.630;55.972;2023-08-21T00:38:28;24.67;;;12.30;;
60086;SDS011;45960;53.630;55.972;2023-08-21T00:39:29;30.20;;;14.07;;
60086;SDS011;45960;53.630;55.972;2023-08-21T00:40:30;28.58;;;13.10;;
60086;SDS011;45960;53.630;55.972;2023-08-21T00:41:32;33.47;;;13.57;;
60086;SDS011;45960;53.630;55.972;2023-08-21T00:42:34;27.98;;;14.10;;
60086;SDS011;45960;53.630;55.972;2023-08-21T00:43:35;31.63;;;15.50;;
60086;SDS011;45960;53.630;55.972;2023-08-21T00:44:36;26.75;;;13.68;;
60086;SDS011;45960;53.630;55.972;2023-08-21T00:45:37;32.50;;;14.57;;
60086;SDS011;45960;53.630;55.972;2023-08-21T00:46:43;34.60;;;14.95;;
60086;SDS011;45960;53.630;55.972;2023-08-21T00:47:44;28.35;;;13.75;;
60086;SDS011;45960;53.630;55.972;2023-08-21T00:48:45;28.05;;;14.75;;
60086;SDS011;45960;53.630;55.972;2023-08-21T00:49:47;31.00;;;15.10;;
60086;SDS011;45960;53.630;55.972;2023-08-21T00:50:48;33.92;;;15.80;;
60086;SDS011;45960;53.630;55.972;2023-08-21T00:51:51;41.92;;;16.85;;
60086;SDS011;45960;53.630;55.972;2023-08-21T00:52:52;37.65;;;17.02;;
60086;SDS011;45960;53.630;55.972;2023-08-21T00:53:53;32.90;;;17.95;;
60086;SDS011;45960;53.630;55.972;2023-08-21T00:54:54;35.47;;;17.42;;
60086;SDS011;45960;53.630;55.972;2023-08-21T00:55:56;39.15;;;17.85;;
60086;SDS011;45960;53.630;55.972;2023-08-21T00:56:57;38.25;;;17.95;;
60086;SDS011;45960;53.630;55.972;2023-08-21T00:57:59;44.95;;;18.80;;
60086;SDS011;45960;53.630;55.972;2023-08-21T00:59:04;41.47;;;18.65;;
60086;SDS011;45960;53.630;55.972;2023-08-21T01:00:07;84.32;;;19.05;;
60086;SDS011;45960;53.630;55.972;2023-08-21T01:01:12;47.95;;;19.80;;
60086;SDS011;45960;53.630;55.972;2023-08-21T01:02:16;42.70;;;18.85;;
60086;SDS011;45960;53.630;55.972;2023-08-21T01:03:19;45.97;;;19.35;;
60086;SDS011;45960;53.630;55.972;2023-08-21T01:04:20;48.88;;;19.70;;
60086;SDS011;45960;53.630;55.972;2023-08-21T01:05:22;41.13;;;18.27;;
60086;SDS011;45960;53.630;55.972;2023-08-21T01:06:23;31.55;;;17.08;;
60086;SDS011;45960;53.630;55.972;2023-08-21T01:07:24;38.65;;;17.67;;
60086;SDS011;45960;53.630;55.972;2023-08-21T01:08:28;40.08;;;17.73;;
60086;SDS011;45960;53.630;55.972;2023-08-21T01:10:45;31.38;;;14.27;;
60086;SDS011;45960;53.630;55.972;2023-08-21T01:15:00;17.05;;;6.30;;
60086;SDS011;45960;53.630;55.972;2023-08-21T01:16:05;9.43;;;4.57;;
60086;SDS011;45960;53.630;55.972;2023-08-21T01:17:08;7.57;;;4.22;;
60086;SDS011;45960;53.630;55.972;2023-08-21T01:18:13;7.38;;;3.60;;
60086;SDS011;45960;53.630;55.972;2023-08-21T01:19:24;8.25;;;3.58;;
60086;SDS011;45960;53.630;55.972;2023-08-21T01:20:32;10.90;;;3.35;;
60086;SDS011;45960;53.630;55.972;2023-08-21T01:21:33;7.13;;;3.47;;
60086;SDS011;45960;53.630;55.972;2023-08-21T01:22:38;11.00;;;3.45;;
60086;SDS011;45960;53.630;55.972;2023-08-21T01:23:41;7.28;;;3.53;;
60086;SDS011;45960;53.630;55.972;2023-08-21T01:24:43;7.03;;;3.08;;
60086;SDS011;45960;53.630;55.972;2023-08-21T01:25:44;11.45;;;3.67;;
60086;SDS011;45960;53.630;55.972;2023-08-21T01:26:45;11.10;;;3.20;;
60086;SDS011;45960;53.630;55.972;2023-08-21T01:27:47;5.72;;;3.13;;
60086;SDS011;45960;53.630;55.972;2023-08-21T01:28:50;7.25;;;2.95;;
60086;SDS011;45960;53.630;55.972;2023-08-21T01:29:51;12.98;;;3.28;;
60086;SDS011;45960;53.630;55.972;2023-08-21T01:30:56;5.65;;;2.90;;
60086;SDS011;45960;53.630;55.972;2023-08-21T01:32:29;8.27;;;3.25;;
60086;SDS011;45960;53.630;55.972;2023-08-21T01:33:42;10.77;;;3.15;;
60086;SDS011;45960;53.630;55.972;2023-08-21T01:34:51;12.88;;;3.70;;
60086;SDS011;45960;53.630;55.972;2023-08-21T01:35:56;7.38;;;3.45;;
60086;SDS011;45960;53.630;55.972;2023-08-21T01:37:00;9.40;;;3.72;;
60086;SDS011;45960;53.630;55.972;2023-08-21T01:38:02;7.72;;;4.07;;
60086;SDS011;45960;53.630;55.972;2023-08-21T01:39:04;9.13;;;4.15;;
60086;SDS011;45960;53.630;55.972;2023-08-21T01:40:05;13.73;;;3.88;;
60086;SDS011;45960;53.630;55.972;2023-08-21T01:41:07;10.40;;;4.00;;
60086;SDS011;45960;53.630;55.972;2023-08-21T01:42:08;12.02;;;4.15;;
60086;SDS011;45960;53.630;55.972;2023-08-21T01:43:09;11.98;;;3.90;;
60086;SDS011;45960;53.630;55.972;2023-08-21T01:44:10;10.52;;;3.90;;
60086;SDS011;45960;53.630;55.972;2023-08-21T01:45:11;10.05;;;3.42;;
60086;SDS011;45960;53.630;55.972;2023-08-21T01:46:12;9.52;;;3.60;;
60086;SDS011;45960;53.630;55.972;2023-08-21T01:47:13;7.85;;;3.45;;
60086;SDS011;45960;53.630;55.972;2023-08-21T01:48:14;9.57;;;3.92;;
60086;SDS011;45960;53.630;55.972;2023-08-21T01:49:15;8.88;;;4.45;;
60086;SDS011;45960;53.630;55.972;2023-08-21T01:50:16;9.60;;;3.92;;
60086;SDS011;45960;53.630;55.972;2023-08-21T01:51:17;11.43;;;4.13;;
60086;SDS011;45960;53.630;55.972;2023-08-21T01:52:19;6.60;;;3.70;;
60086;SDS011;45960;53.630;55.972;2023-08-21T01:53:20;8.60;;;3.72;;
60086;SDS011;45960;53.630;55.972;2023-08-21T01:54:21;7.13;;;3.10;;
60086;SDS011;45960;53.630;55.972;2023-08-21T01:55:22;12.27;;;4.03;;
60086;SDS011;45960;53.630;55.972;2023-08-21T01:56:23;11.00;;;4.10;;
60086;SDS011;45960;53.630;55.972;2023-08-21T01:57:24;13.98;;;4.03;;
60086;SDS011;45960;53.630;55.972;2023-08-21T01:58:25;14.60;;;4.40;;
60086;SDS011;45960;53.630;55.972;2023-08-21T01:59:26;9.82;;;3.83;;
60086;SDS011;45960;53.630;55.972;2023-08-21T02:00:28;9.75;;;3.78;;
60086;SDS011;45960;53.630;55.972;2023-08-21T02:01:29;15.82;;;4.28;;
60086;SDS011;45960;53.630;55.972;2023-08-21T02:02:30;13.43;;;4.55;;
60086;SDS011;45960;53.630;55.972;2023-08-21T02:03:31;11.65;;;4.13;;
60086;SDS011;45960;53.630;55.972;2023-08-21T02:04:32;10.35;;;4.50;;
60086;SDS011;45960;53.630;55.972;2023-08-21T02:05:37;9.88;;;4.10;;
60086;SDS011;45960;53.630;55.972;2023-08-21T02:06:39;12.38;;;4.50;;
60086;SDS011;45960;53.630;55.972;2023-08-21T02:07:41;9.95;;;4.70;;
60086;SDS011;45960;53.630;55.972;2023-08-21T02:08:42;14.00;;;3.97;;
60086;SDS011;45960;53.630;55.972;2023-08-21T02:09:43;12.38;;;4.50;;
60086;SDS011;45960;53.630;55.972;2023-08-21T02:10:50;15.38;;;4.28;;
60086;SDS011;45960;53.630;55.972;2023-08-21T02:11:52;13.15;;;5.07;;
60086;SDS011;45960;53.630;55.972;2023-08-21T02:12:53;9.30;;;4.50;;
60086;SDS011;45960;53.630;55.972;2023-08-21T02:13:54;21.02;;;5.25;;
60086;SDS011;45960;53.630;55.972;2023-08-21T02:14:55;20.33;;;4.60;;
60086;SDS011;45960;53.630;55.972;2023-08-21T02:15:56;14.52;;;4.32;;
60086;SDS011;45960;53.630;55.972;2023-08-21T02:17:17;21.48;;;4.78;;
60086;SDS011;45960;53.630;55.972;2023-08-21T02:18:18;25.73;;;5.20;;
60086;SDS011;45960;53.630;55.972;2023-08-21T02:19:19;9.90;;;4.47;;
60086;SDS011;45960;53.630;55.972;2023-08-21T02:20:21;8.02;;;4.38;;
60086;SDS011;45960;53.630;55.972;2023-08-21T02:21:22;14.90;;;4.53;;
60086;SDS011;45960;53.630;55.972;2023-08-21T02:22:23;11.23;;;5.28;;
60086;SDS011;45960;53.630;55.972;2023-08-21T02:23:25;12.10;;;3.90;;
60086;SDS011;45960;53.630;55.972;2023-08-21T02:24:25;14.32;;;4.18;;
60086;SDS011;45960;53.630;55.972;2023-08-21T02:25:26;8.48;;;4.35;;
60086;SDS011;45960;53.630;55.972;2023-08-21T02:26:28;10.20;;;4.47;;
60086;SDS011;45960;53.630;55.972;2023-08-21T02:27:29;10.82;;;3.70;;
60086;SDS011;45960;53.630;55.972;2023-08-21T02:28:30;16.23;;;4.38;;
60086;SDS011;45960;53.630;55.972;2023-08-21T02:29:31;13.90;;;4.68;;
60086;SDS011;45960;53.630;55.972;2023-08-21T02:30:32;12.35;;;4.65;;
60086;SDS011;45960;53.630;55.972;2023-08-21T02:31:33;14.30;;;5.45;;
60086;SDS011;45960;53.630;55.972;2023-08-21T02:32:34;9.88;;;4.65;;
60086;SDS011;45960;53.630;55.972;2023-08-21T02:33:35;12.85;;;4.30;;
60086;SDS011;45960;53.630;55.972;2023-08-21T02:34:36;10.98;;;3.97;;
60086;SDS011;45960;53.630;55.972;2023-08-21T02:35:38;11.13;;;4.90;;
60086;SDS011;45960;53.630;55.972;2023-08-21T02:36:39;14.93;;;4.47;;
60086;SDS011;45960;53.630;55.972;2023-08-21T02:37:40;9.75;;;4.13;;
60086;SDS011;45960;53.630;55.972;2023-08-21T02:38:41;12.10;;;4.40;;
60086;SDS011;45960;53.630;55.972;2023-08-21T02:39:42;24.10;;;4.53;;
60086;SDS011;45960;53.630;55.972;2023-08-21T02:40:43;12.10;;;4.57;;
60086;SDS011;45960;53.630;55.972;2023-08-21T02:41:44;13.75;;;4.60;;
60086;SDS011;45960;53.630;55.972;2023-08-21T02:42:45;14.68;;;4.95;;
60086;SDS011;45960;53.630;55.972;2023-08-21T02:43:46;7.97;;;4.00;;
60086;SDS011;45960;53.630;55.972;2023-08-21T02:44:48;20.85;;;4.85;;
60086;SDS011;45960;53.630;55.972;2023-08-21T02:45:49;14.05;;;4.35;;
60086;SDS011;45960;53.630;55.972;2023-08-21T02:46:50;9.18;;;4.40;;
60086;SDS011;45960;53.630;55.972;2023-08-21T02:47:51;11.15;;;4.70;;
60086;SDS011;45960;53.630;55.972;2023-08-21T02:48:52;10.68;;;4.30;;
60086;SDS011;45960;53.630;55.972;2023-08-21T02:49:53;15.52;;;5.15;;
60086;SDS011;45960;53.630;55.972;2023-08-21T02:50:54;21.98;;;6.13;;
60086;SDS011;45960;53.630;55.972;2023-08-21T02:51:55;8.93;;;4.47;;
60086;SDS011;45960;53.630;55.972;2023-08-21T02:52:56;22.88;;;4.88;;
60086;SDS011;45960;53.630;55.972;2023-08-21T02:53:57;18.48;;;5.47;;
60086;SDS011;45960;53.630;55.972;2023-08-21T02:54:58;15.93;;;5.00;;
60086;SDS011;45960;53.630;55.972;2023-08-21T02:56:00;13.40;;;4.97;;
60086;SDS011;45960;53.630;55.972;2023-08-21T02:57:01;15.95;;;5.90;;
60086;SDS011;45960;53.630;55.972;2023-08-21T02:58:02;19.25;;;6.15;;
60086;SDS011;45960;53.630;55.972;2023-08-21T02:59:03;14.95;;;5.72;;
60086;SDS011;45960;53.630;55.972;2023-08-21T03:00:04;14.18;;;5.50;;
60086;SDS011;45960;53.630;55.972;2023-08-21T03:01:07;12.48;;;4.57;;
60086;SDS011;45960;53.630;55.972;2023-08-21T03:02:08;8.55;;;5.13;;
60086;SDS011;45960;53.630;55.972;2023-08-21T03:03:09;12.32;;;5.57;;
60086;SDS011;45960;53.630;55.972;2023-08-21T03:04:11;13.30;;;4.53;;
60086;SDS011;45960;53.630;55.972;2023-08-21T03:05:12;10.30;;;4.93;;
60086;SDS011;45960;53.630;55.972;2023-08-21T03:06:14;10.35;;;4.63;;
60086;SDS011;45960;53.630;55.972;2023-08-21T03:07:17;12.50;;;4.60;;
60086;SDS011;45960;53.630;55.972;2023-08-21T03:08:19;11.65;;;4.25;;
60086;SDS011;45960;53.630;55.972;2023-08-21T03:09:20;12.85;;;5.03;;
60086;SDS011;45960;53.630;55.972;2023-08-21T03:10:21;12.85;;;4.82;;
60086;SDS011;45960;53.630;55.972;2023-08-21T03:11:24;11.23;;;4.35;;
60086;SDS011;45960;53.630;55.972;2023-08-21T03:12:26;13.43;;;4.78;;
60086;SDS011;45960;53.630;55.972;2023-08-21T03:13:27;14.98;;;5.05;;
60086;SDS011;45960;53.630;55.972;2023-08-21T03:14:28;19.38;;;4.60;;
60086;SDS011;45960;53.630;55.972;2023-08-21T03:15:29;14.20;;;4.88;;
60086;SDS011;45960;53.630;55.972;2023-08-21T03:16:30;29.45;;;5.40;;
60086;SDS011;45960;53.630;55.972;2023-08-21T03:17:31;21.55;;;4.55;;
60086;SDS011;45960;53.630;55.972;2023-08-21T03:18:32;13.65;;;4.55;;
60086;SDS011;45960;53.630;55.972;2023-08-21T03:19:34;12.13;;;4.70;;
60086;SDS011;45960;53.630;55.972;2023-08-21T03:20:35;13.82;;;4.35;;
60086;SDS011;45960;53.630;55.972;2023-08-21T03:21:36;15.57;;;4.72;;
60086;SDS011;45960;53.630;55.972;2023-08-21T03:22:37;8.50;;;4.50;;
60086;SDS011;45960;53.630;55.972;2023-08-21T03:23:38;16.10;;;4.38;;
60086;SDS011;45960;53.630;55.972;2023-08-21T03:24:40;13.18;;;4.82;;
60086;SDS011;45960;53.630;55.972;2023-08-21T03:25:41;7.82;;;4.55;;
60086;SDS011;45960;53.630;55.972;2023-08-21T03:26:42;15.10;;;4.32;;
60086;SDS011;45960;53.630;55.972;2023-08-21T03:27:43;15.10;;;4.40;;
60086;SDS011;45960;53.630;55.972;2023-08-21T03:28:46;15.90;;;4.85;;
60086;SDS011;45960;53.630;55.972;2023-08-21T03:29:47;13.63;;;5.60;;
60086;SDS011;45960;53.630;55.972;2023-08-21T03:30:52;23.55;;;7.57;;
60086;SDS011;45960;53.630;55.972;2023-08-21T03:31:53;22.42;;;8.98;;
60086;SDS011;45960;53.630;55.972;2023-08-21T03:32:57;21.30;;;6.80;;
60086;SDS011;45960;53.630;55.972;2023-08-21T03:33:59;8.18;;;4.72;;
60086;SDS011;45960;53.630;55.972;2023-08-21T03:35:00;13.20;;;4.57;;
60086;SDS011;45960;53.630;55.972;2023-08-21T03:36:01;16.80;;;4.65;;
60086;SDS011;45960;53.630;55.972;2023-08-21T03:37:02;11.98;;;4.30;;
60086;SDS011;45960;53.630;55.972;2023-08-21T03:38:06;21.42;;;4.25;;
60086;SDS011;45960;53.630;55.972;2023-08-21T03:39:14;12.18;;;4.50;;
60086;SDS011;45960;53.630;55.972;2023-08-21T03:40:19;13.40;;;4.53;;
60086;SDS011;45960;53.630;55.972;2023-08-21T03:41:21;12.52;;;5.03;;
60086;SDS011;45960;53.630;55.972;2023-08-21T03:42:22;13.65;;;3.92;;
60086;SDS011;45960;53.630;55.972;2023-08-21T03:43:23;17.50;;;4.70;;
60086;SDS011;45960;53.630;55.972;2023-08-21T03:44:24;14.30;;;4.57;;
60086;SDS011;45960;53.630;55.972;2023-08-21T03:45:25;16.90;;;4.40;;
60086;SDS011;45960;53.630;55.972;2023-08-21T03:46:28;13.15;;;3.97;;
60086;SDS011;45960;53.630;55.972;2023-08-21T03:47:29;11.60;;;4.20;;
60086;SDS011;45960;53.630;55.972;2023-08-21T03:48:35;14.93;;;4.50;;
60086;SDS011;45960;53.630;55.972;2023-08-21T03:49:36;13.60;;;5.78;;
60086;SDS011;45960;53.630;55.972;2023-08-21T03:50:38;21.85;;;4.50;;
60086;SDS011;45960;53.630;55.972;2023-08-21T03:51:39;11.27;;;4.30;;
60086;SDS011;45960;53.630;55.972;2023-08-21T03:52:40;11.73;;;5.05;;
60086;SDS011;45960;53.630;55.972;2023-08-21T03:53:42;18.50;;;6.60;;
60086;SDS011;45960;53.630;55.972;2023-08-21T03:54:43;21.98;;;6.18;;
60086;SDS011;45960;53.630;55.972;2023-08-21T03:55:44;17.50;;;6.00;;
60086;SDS011;45960;53.630;55.972;2023-08-21T03:56:45;11.75;;;6.00;;
60086;SDS011;45960;53.630;55.972;2023-08-21T03:57:48;13.27;;;5.93;;
60086;SDS011;45960;53.630;55.972;2023-08-21T03:58:50;14.98;;;5.32;;
60086;SDS011;45960;53.630;55.972;2023-08-21T03:59:51;15.63;;;5.80;;
60086;SDS011;45960;53.630;55.972;2023-08-21T04:00:52;15.50;;;5.53;;
60086;SDS011;45960;53.630;55.972;2023-08-21T04:01:54;11.45;;;5.25;;
60086;SDS011;45960;53.630;55.972;2023-08-21T04:02:55;14.82;;;5.13;;
60086;SDS011;45960;53.630;55.972;2023-08-21T04:03:56;15.68;;;6.25;;
60086;SDS011;45960;53.630;55.972;2023-08-21T04:04:57;12.27;;;4.95;;
60086;SDS011;45960;53.630;55.972;2023-08-21T04:05:58;11.95;;;4.50;;
60086;SDS011;45960;53.630;55.972;2023-08-21T04:07:00;9.68;;;5.15;;
60086;SDS011;45960;53.630;55.972;2023-08-21T04:08:01;11.70;;;4.80;;
60086;SDS011;45960;53.630;55.972;2023-08-21T04:09:02;11.70;;;5.03;;
60086;SDS011;45960;53.630;55.972;2023-08-21T04:10:06;10.98;;;4.75;;
60086;SDS011;45960;53.630;55.972;2023-08-21T04:11:08;14.73;;;4.90;;
60086;SDS011;45960;53.630;55.972;2023-08-21T04:12:09;11.45;;;4.30;;
60086;SDS011;45960;53.630;55.972;2023-08-21T04:13:10;16.25;;;5.97;;
60086;SDS011;45960;53.630;55.972;2023-08-21T04:14:11;11.07;;;5.50;;
60086;SDS011;45960;53.630;55.972;2023-08-21T04:15:12;11.73;;;5.45;;
60086;SDS011;45960;53.630;55.972;2023-08-21T04:16:15;14.77;;;6.07;;
60086;SDS011;45960;53.630;55.972;2023-08-21T04:17:23;20.77;;;5.57;;
60086;SDS011;45960;53.630;55.972;2023-08-21T04:18:25;19.20;;;6.65;;
60086;SDS011;45960;53.630;55.972;2023-08-21T04:19:26;18.90;;;6.07;;
60086;SDS011;45960;53.630;55.972;2023-08-21T04:20:30;24.67;;;6.80;;
60086;SDS011;45960;53.630;55.972;2023-08-21T04:21:31;15.63;;;7.68;;
60086;SDS011;45960;53.630;55.972;2023-08-21T04:22:32;19.58;;;6.78;;
60086;SDS011;45960;53.630;55.972;2023-08-21T04:23:34;21.40;;;7.00;;
60086;SDS011;45960;53.630;55.972;2023-08-21T04:24:34;15.32;;;6.13;;
60086;SDS011;45960;53.630;55.972;2023-08-21T04:25:36;17.02;;;8.55;;
60086;SDS011;45960;53.630;55.972;2023-08-21T04:26:37;23.58;;;7.55;;
60086;SDS011;45960;53.630;55.972;2023-08-21T04:27:38;38.28;;;13.50;;
60086;SDS011;45960;53.630;55.972;2023-08-21T04:28:39;35.92;;;10.07;;
60086;SDS011;45960;53.630;55.972;2023-08-21T04:29:40;44.10;;;17.95;;
60086;SDS011;45960;53.630;55.972;2023-08-21T04:30:41;53.45;;;25.25;;
60086;SDS011;45960;53.630;55.972;2023-08-21T04:31:44;26.15;;;11.45;;
60086;SDS011;45960;53.630;55.972;2023-08-21T04:32:45;27.27;;;9.82;;
60086;SDS011;45960;53.630;55.972;2023-08-21T04:33:47;39.95;;;7.30;;
60086;SDS011;45960;53.630;55.972;2023-08-21T04:34:48;28.95;;;9.80;;
60086;SDS011;45960;53.630;55.972;2023-08-21T04:35:50;20.15;;;9.30;;
60086;SDS011;45960;53.630;55.972;2023-08-21T04:36:51;26.40;;;9.45;;
60086;SDS011;45960;53.630;55.972;2023-08-21T04:37:53;21.27;;;8.57;;
60086;SDS011;45960;53.630;55.972;2023-08-21T04:38:56;24.95;;;7.97;;
60086;SDS011;45960;53.630;55.972;2023-08-21T04:39:57;28.85;;;10.25;;
60086;SDS011;45960;53.630;55.972;2023-08-21T04:41:08;34.30;;;10.48;;
60086;SDS011;45960;53.630;55.972;2023-08-21T04:42:11;28.92;;;9.18;;
60086;SDS011;45960;53.630;55.972;2023-08-21T04:43:12;23.98;;;9.98;;
60086;SDS011;45960;53.630;55.972;2023-08-21T04:44:14;27.27;;;9.05;;
60086;SDS011;45960;53.630;55.972;2023-08-21T04:45:16;20.58;;;8.82;;
60086;SDS011;45960;53.630;55.972;2023-08-21T04:46:18;42.97;;;11.07;;
60086;SDS011;45960;53.630;55.972;2023-08-21T04:47:21;31.08;;;9.95;;
60086;SDS011;45960;53.630;55.972;2023-08-21T04:48:29;26.70;;;10.05;;
60086;SDS011;45960;53.630;55.972;2023-08-21T04:49:30;32.90;;;11.07;;
60086;SDS011;45960;53.630;55.972;2023-08-21T04:50:31;30.20;;;9.02;;
60086;SDS011;45960;53.630;55.972;2023-08-21T04:51:33;20.30;;;8.48;;
60086;SDS011;45960;53.630;55.972;2023-08-21T04:52:36;32.15;;;9.60;;
60086;SDS011;45960;53.630;55.972;2023-08-21T04:53:37;60.72;;;10.55;;
60086;SDS011;45960;53.630;55.972;2023-08-21T04:54:42;31.88;;;10.10;;
60086;SDS011;45960;53.630;55.972;2023-08-21T04:55:44;38.22;;;10.95;;
60086;SDS011;45960;53.630;55.972;2023-08-21T04:56:46;25.55;;;8.63;;
60086;SDS011;45960;53.630;55.972;2023-08-21T04:57:48;30.75;;;10.88;;
60086;SDS011;45960;53.630;55.972;2023-08-21T04:58:49;31.77;;;10.55;;
60086;SDS011;45960;53.630;55.972;2023-08-21T04:59:51;30.77;;;11.52;;
60086;SDS011;45960;53.630;55.972;2023-08-21T05:00:54;32.33;;;12.52;;
60086;SDS011;45960;53.630;55.972;2023-08-21T05:01:55;34.97;;;12.00;;
60086;SDS011;45960;53.630;55.972;2023-08-21T05:02:56;27.88;;;12.13;;
60086;SDS011;45960;53.630;55.972;2023-08-21T05:03:58;31.02;;;9.77;;
60086;SDS011;45960;53.630;55.972;2023-08-21T05:04:59;30.27;;;12.20;;
60086;SDS011;45960;53.630;55.972;2023-08-21T05:06:00;28.58;;;11.18;;
60086;SDS011;45960;53.630;55.972;2023-08-21T05:07:01;30.30;;;12.13;;
60086;SDS011;45960;53.630;55.972;2023-08-21T05:08:04;32.80;;;12.68;;
60086;SDS011;45960;53.630;55.972;2023-08-21T05:09:06;29.70;;;8.05;;
60086;SDS011;45960;53.630;55.972;2023-08-21T05:10:07;27.75;;;11.45;;
60086;SDS011;45960;53.630;55.972;2023-08-21T05:11:10;21.38;;;9.48;;
60086;SDS011;45960;53.630;55.972;2023-08-21T05:12:12;20.27;;;8.75;;
60086;SDS011;45960;53.630;55.972;2023-08-21T05:13:13;36.75;;;10.43;;
60086;SDS011;45960;53.630;55.972;2023-08-21T05:14:17;27.30;;;9.50;;
60086;SDS011;45960;53.630;55.972;2023-08-21T05:15:20;24.85;;;11.18;;
60086;SDS011;45960;53.630;55.972;2023-08-21T05:16:21;19.02;;;10.02;;
60086;SDS011;45960;53.630;55.972;2023-08-21T05:17:23;16.60;;;8.32;;
60086;SDS011;45960;53.630;55.972;2023-08-21T05:18:25;20.08;;;8.93;;
60086;SDS011;45960;53.630;55.972;2023-08-21T05:19:26;29.05;;;9.75;;
60086;SDS011;45960;53.630;55.972;2023-08-21T05:20:27;20.15;;;7.78;;
60086;SDS011;45960;53.630;55.972;2023-08-21T05:21:28;24.10;;;9.27;;
60086;SDS011;45960;53.630;55.972;2023-08-21T05:22:30;26.27;;;9.93;;
60086;SDS011;45960;53.630;55.972;2023-08-21T05:23:31;21.17;;;8.82;;
60086;SDS011;45960;53.630;55.972;2023-08-21T05:24:37;16.50;;;8.63;;
60086;SDS011;45960;53.630;55.972;2023-08-21T05:25:40;20.33;;;8.50;;
60086;SDS011;45960;53.630;55.972;2023-08-21T05:26:42;27.10;;;9.27;;
60086;SDS011;45960;53.630;55.972;2023-08-21T05:27:43;26.42;;;8.65;;
60086;SDS011;45960;53.630;55.972;2023-08-21T06:45:23;21.77;;;7.25;;
60086;SDS011;45960;53.630;55.972;2023-08-21T06:46:26;21.73;;;7.85;;
60086;SDS011;45960;53.630;55.972;2023-08-21T06:47:27;32.45;;;8.45;;
60086;SDS011;45960;53.630;55.972;2023-08-21T06:48:29;19.10;;;6.68;;
60086;SDS011;45960;53.630;55.972;2023-08-21T06:49:30;40.00;;;8.00;;
60086;SDS011;45960;53.630;55.972;2023-08-21T06:50:31;16.25;;;5.93;;
60086;SDS011;45960;53.630;55.972;2023-08-21T06:51:32;17.83;;;6.93;;
60086;SDS011;45960;53.630;55.972;2023-08-21T06:52:33;35.03;;;8.02;;
60086;SDS011;45960;53.630;55.972;2023-08-21T06:53:34;19.60;;;6.95;;
60086;SDS011;45960;53.630;55.972;2023-08-21T06:54:35;16.38;;;6.63;;
60086;SDS011;45960;53.630;55.972;2023-08-21T06:55:38;17.95;;;6.82;;
60086;SDS011;45960;53.630;55.972;2023-08-21T06:56:39;24.85;;;6.75;;
60086;SDS011;45960;53.630;55.972;2023-08-21T06:57:40;28.80;;;7.38;;
60086;SDS011;45960;53.630;55.972;2023-08-21T06:58:41;21.05;;;6.82;;
60086;SDS011;45960;53.630;55.972;2023-08-21T06:59:42;17.40;;;7.07;;
60086;SDS011;45960;53.630;55.972;2023-08-21T07:00:43;13.60;;;6.90;;
60086;SDS011;45960;53.630;55.972;2023-08-21T07:01:44;17.10;;;7.35;;
60086;SDS011;45960;53.630;55.972;2023-08-21T07:02:45;20.52;;;7.70;;
60086;SDS011;45960;53.630;55.972;2023-08-21T07:03:46;22.50;;;6.47;;
60086;SDS011;45960;53.630;55.972;2023-08-21T07:04:47;21.63;;;6.35;;
60086;SDS011;45960;53.630;55.972;2023-08-21T07:05:58;18.73;;;6.55;;
60086;SDS011;45960;53.630;55.972;2023-08-21T07:06:59;18.27;;;6.38;;
60086;SDS011;45960;53.630;55.972;2023-08-21T07:08:00;19.92;;;6.97;;
60086;SDS011;45960;53.630;55.972;2023-08-21T07:09:01;23.65;;;6.53;;
60086;SDS011;45960;53.630;55.972;2023-08-21T07:10:03;19.52;;;6.60;;
60086;SDS011;45960;53.630;55.972;2023-08-21T07:11:04;24.98;;;6.75;;
60086;SDS011;45960;53.630;55.972;2023-08-21T07:12:05;54.35;;;7.88;;
60086;SDS011;45960;53.630;55.972;2023-08-21T07:13:07;74.72;;;9.90;;
60086;SDS011;45960;53.630;55.972;2023-08-21T07:14:08;22.92;;;6.75;;
60086;SDS011;45960;53.630;55.972;2023-08-21T07:15:09;25.30;;;6.75;;
60086;SDS011;45960;53.630;55.972;2023-08-21T07:16:10;29.27;;;6.85;;
60086;SDS011;45960;53.630;55.972;2023-08-21T07:17:11;30.70;;;7.72;;
60086;SDS011;45960;53.630;55.972;2023-08-21T07:18:13;23.92;;;6.38;;
60086;SDS011;45960;53.630;55.972;2023-08-21T07:19:14;53.33;;;8.30;;
60086;SDS011;45960;53.630;55.972;2023-08-21T07:20:15;45.58;;;7.90;;
60086;SDS011;45960;53.630;55.972;2023-08-21T07:21:16;28.73;;;7.18;;
60086;SDS011;45960;53.630;55.972;2023-08-21T07:22:17;17.65;;;6.05;;
60086;SDS011;45960;53.630;55.972;2023-08-21T07:23:18;27.60;;;6.60;;